createdAt,value
2022-10-31T00:01:36.920Z,5.90
2022-10-31T00:04:05.272Z,6.45
2022-10-31T00:06:32.282Z,6.50
2022-10-31T00:09:04.034Z,6.40
2022-10-31T00:11:31.049Z,6.40
2022-10-31T00:14:01.620Z,7.22
2022-10-31T00:16:29.802Z,6.57
2022-10-31T00:19:03.149Z,6.65
2022-10-31T00:21:31.578Z,6.47
2022-10-31T00:23:59.966Z,6.60
2022-10-31T00:26:32.321Z,7.00
2022-10-31T00:29:00.977Z,6.68
2022-10-31T00:31:28.131Z,6.32
2022-10-31T00:33:54.869Z,6.38
2022-10-31T00:36:21.860Z,7.38
2022-10-31T00:38:49.390Z,6.28
2022-10-31T00:41:18.645Z,5.90
2022-10-31T00:43:45.825Z,6.30
2022-10-31T00:46:14.007Z,5.78
2022-10-31T00:48:40.913Z,6.78
2022-10-31T00:51:08.165Z,5.70
2022-10-31T00:53:35.051Z,6.65
2022-10-31T00:56:01.840Z,6.93
2022-10-31T00:58:28.628Z,5.83
2022-10-31T01:00:58.501Z,5.32
2022-10-31T01:03:32.174Z,6.22
2022-10-31T01:06:03.710Z,6.55
2022-10-31T01:08:30.549Z,6.17
2022-10-31T01:11:10.854Z,5.73
2022-10-31T01:13:38.085Z,6.43
2022-10-31T01:16:07.607Z,5.67
2022-10-31T01:18:35.394Z,6.13
2022-10-31T01:21:09.975Z,6.90
2022-10-31T01:23:37.384Z,5.60
2022-10-31T01:26:11.485Z,6.03
2022-10-31T01:28:44.538Z,6.90
2022-10-31T01:31:11.481Z,5.50
2022-10-31T01:33:39.079Z,5.53
2022-10-31T01:36:25.081Z,5.40
2022-10-31T01:38:59.501Z,5.40
2022-10-31T01:41:36.414Z,6.33
2022-10-31T01:44:23.429Z,5.23
2022-10-31T01:47:05.134Z,5.70
2022-10-31T01:49:55.502Z,6.17
2022-10-31T01:52:43.798Z,4.90
2022-10-31T01:55:20.922Z,5.67
2022-10-31T01:57:52.822Z,5.77
2022-10-31T02:00:22.432Z,5.63
2022-10-31T02:02:51.896Z,5.40
2022-10-31T02:05:24.262Z,5.40
2022-10-31T02:08:03.386Z,5.60
2022-10-31T02:10:34.203Z,6.00
2022-10-31T02:13:06.173Z,5.03
2022-10-31T02:15:34.313Z,5.87
2022-10-31T02:18:01.929Z,5.10
2022-10-31T02:21:01.759Z,5.90
2022-10-31T02:23:34.717Z,5.63
2022-10-31T02:26:21.345Z,5.10
2022-10-31T02:29:37.774Z,5.90
2022-10-31T02:32:50.894Z,4.97
2022-10-31T02:35:26.514Z,4.97
2022-10-31T02:38:25.873Z,5.10
2022-10-31T02:41:15.075Z,5.37
2022-10-31T02:43:59.121Z,5.07
2022-10-31T02:47:05.830Z,5.83
2022-10-31T02:50:02.003Z,5.47
2022-10-31T02:52:31.949Z,5.53
2022-10-31T02:54:59.138Z,6.00
2022-10-31T02:57:35.492Z,5.90
2022-10-31T03:00:07.562Z,5.30
2022-10-31T03:03:25.410Z,5.60
2022-10-31T03:06:15.063Z,5.17
2022-10-31T03:09:20.039Z,5.30
2022-10-31T03:12:21.982Z,5.43
2022-10-31T03:15:06.687Z,5.40
2022-10-31T03:17:45.069Z,5.80
2022-10-31T03:20:12.387Z,6.00
2022-10-31T03:22:44.858Z,5.60
2022-10-31T03:25:14.198Z,5.33
2022-10-31T03:27:44.649Z,5.73
2022-10-31T03:30:12.027Z,4.83
2022-10-31T03:32:56.723Z,5.30
2022-10-31T03:35:28.326Z,5.40
2022-10-31T03:38:02.919Z,5.70
2022-10-31T03:40:37.746Z,5.70
2022-10-31T03:43:17.938Z,5.13
2022-10-31T03:45:48.125Z,5.23
2022-10-31T03:48:19.309Z,5.40
2022-10-31T03:51:00.271Z,5.00
2022-10-31T03:53:44.086Z,5.00
2022-10-31T03:56:52.779Z,5.07
2022-10-31T03:59:35.975Z,5.40
2022-10-31T04:02:14.674Z,5.33
2022-10-31T04:04:43.945Z,5.57
2022-10-31T04:07:13.373Z,6.20
2022-10-31T04:09:47.080Z,6.70
2022-10-31T04:12:18.284Z,5.93
2022-10-31T04:14:49.501Z,5.50
2022-10-31T04:17:22.163Z,4.93
2022-10-31T04:19:49.003Z,5.50
2022-10-31T04:22:15.792Z,5.40
2022-10-31T04:24:42.533Z,5.47
2022-10-31T04:27:09.336Z,5.33
2022-10-31T04:29:36.057Z,5.13
2022-10-31T04:32:02.858Z,5.30
2022-10-31T04:34:29.635Z,5.40
2022-10-31T04:36:56.357Z,5.57
2022-10-31T04:39:26.775Z,4.97
2022-10-31T04:41:53.916Z,5.00
2022-10-31T04:44:20.667Z,5.77
2022-10-31T04:46:47.593Z,5.67
2022-10-31T04:49:14.456Z,5.30
2022-10-31T04:51:41.220Z,5.40
2022-10-31T04:54:08.202Z,5.43
2022-10-31T04:56:34.987Z,5.70
2022-10-31T04:59:01.935Z,5.17
2022-10-31T05:01:29.084Z,5.17
2022-10-31T05:03:56.082Z,4.77
2022-10-31T05:06:22.873Z,5.20
2022-10-31T05:08:49.591Z,5.73
2022-10-31T05:11:16.428Z,5.20
2022-10-31T05:13:47.689Z,6.20
2022-10-31T05:16:14.618Z,5.60
2022-10-31T05:18:41.370Z,5.80
2022-10-31T05:21:08.133Z,6.13
2022-10-31T05:23:34.970Z,6.10
2022-10-31T05:26:04.433Z,6.30
2022-10-31T05:28:31.183Z,6.77
2022-10-31T05:30:57.905Z,5.90
2022-10-31T05:33:24.843Z,6.17
2022-10-31T05:35:51.574Z,5.40
2022-10-31T05:38:18.341Z,10.23
2022-10-31T05:40:45.170Z,13.53
2022-10-31T05:43:12.507Z,6.03
2022-10-31T05:45:39.255Z,6.10
2022-10-31T05:48:07.355Z,6.07
2022-10-31T05:50:34.128Z,6.93
2022-10-31T05:53:04.353Z,6.40
2022-10-31T05:55:32.680Z,6.33
2022-10-31T05:57:59.769Z,5.97
2022-10-31T06:00:28.384Z,5.87
2022-10-31T06:03:04.551Z,5.73
2022-10-31T06:05:32.011Z,5.73
2022-10-31T06:07:59.985Z,6.33
2022-10-31T06:10:28.345Z,6.70
2022-10-31T06:12:55.235Z,6.40
2022-10-31T06:15:24.399Z,6.20
2022-10-31T06:18:06.832Z,5.97
2022-10-31T06:20:34.409Z,6.77
2022-10-31T06:23:02.340Z,5.43
2022-10-31T06:25:29.703Z,5.73
2022-10-31T06:27:56.797Z,7.00
2022-10-31T06:30:23.795Z,6.63
2022-10-31T06:32:50.744Z,6.63
2022-10-31T06:35:18.364Z,6.87
2022-10-31T06:37:53.384Z,6.27
2022-10-31T06:40:20.725Z,6.37
2022-10-31T06:42:47.486Z,7.03
2022-10-31T06:45:14.552Z,6.10
2022-10-31T06:47:56.837Z,6.80
2022-10-31T06:50:28.168Z,6.93
2022-10-31T06:52:57.948Z,6.77
2022-10-31T06:55:27.319Z,7.07
2022-10-31T06:57:58.948Z,8.53
2022-10-31T07:00:31.505Z,6.60
2022-10-31T07:03:09.614Z,7.13
2022-10-31T07:05:36.389Z,7.70
2022-10-31T07:08:09.276Z,7.20
2022-10-31T07:10:40.397Z,7.60
2022-10-31T07:13:13.746Z,7.83
2022-10-31T07:15:43.863Z,6.83
2022-10-31T07:18:12.718Z,6.93
2022-10-31T07:20:39.594Z,7.57
2022-10-31T07:23:06.756Z,7.27
2022-10-31T07:25:33.970Z,7.13
2022-10-31T07:28:00.951Z,6.93
2022-10-31T07:30:28.291Z,7.33
2022-10-31T07:32:56.400Z,7.03
2022-10-31T07:35:29.608Z,7.30
2022-10-31T07:37:56.498Z,7.30
2022-10-31T07:40:25.445Z,7.60
2022-10-31T07:42:53.960Z,7.90
2022-10-31T07:45:22.103Z,8.47
2022-10-31T07:47:51.815Z,8.87
2022-10-31T07:50:29.141Z,8.73
2022-10-31T07:53:11.238Z,8.63
2022-10-31T07:55:38.960Z,7.40
2022-10-31T07:58:10.057Z,7.53
2022-10-31T08:00:39.024Z,7.50
2022-10-31T08:03:12.363Z,7.20
2022-10-31T08:05:41.813Z,7.80
2022-10-31T08:08:09.612Z,7.20
2022-10-31T08:10:37.256Z,7.13
2022-10-31T08:13:11.689Z,7.15
2022-10-31T08:15:40.841Z,7.40
2022-10-31T08:18:13.344Z,6.82
2022-10-31T08:20:41.114Z,7.28
2022-10-31T08:23:08.209Z,9.73
2022-10-31T08:25:38.562Z,10.98
2022-10-31T08:28:07.122Z,10.30
2022-10-31T08:30:37.129Z,10.32
2022-10-31T08:33:17.638Z,10.15
2022-10-31T08:35:45.629Z,9.90
2022-10-31T08:38:14.039Z,9.57
2022-10-31T08:40:41.330Z,10.75
2022-10-31T08:43:16.876Z,8.75
2022-10-31T08:45:48.053Z,9.10
2022-10-31T08:48:17.391Z,9.10
2022-10-31T08:50:46.172Z,9.75
2022-10-31T08:53:20.015Z,8.93
2022-10-31T08:55:47.961Z,8.38
2022-10-31T08:58:20.406Z,8.80
2022-10-31T09:00:51.188Z,7.57
2022-10-31T09:03:30.170Z,9.18
2022-10-31T09:06:03.864Z,8.63
2022-10-31T09:08:32.455Z,8.60
2022-10-31T09:11:00.424Z,9.02
2022-10-31T09:13:28.356Z,8.25
2022-10-31T09:15:57.741Z,8.35
2022-10-31T09:18:25.388Z,7.95
2022-10-31T09:20:52.312Z,8.05
2022-10-31T09:23:22.865Z,8.48
2022-10-31T09:25:52.373Z,8.50
2022-10-31T09:28:24.696Z,8.40
2022-10-31T09:30:54.211Z,8.80
2022-10-31T09:33:21.771Z,8.43
2022-10-31T09:35:49.669Z,8.48
2022-10-31T09:38:20.361Z,8.00
2022-10-31T09:41:07.437Z,8.77
2022-10-31T09:44:09.134Z,8.73
2022-10-31T09:47:09.574Z,8.00
2022-10-31T09:49:51.312Z,7.57
2022-10-31T09:52:33.887Z,7.28
2022-10-31T09:55:27.942Z,7.15
2022-10-31T09:57:55.293Z,7.20
2022-10-31T10:00:23.481Z,6.95
2022-10-31T10:03:23.645Z,6.68
2022-10-31T10:06:07.935Z,7.95
2022-10-31T10:08:36.822Z,8.02
2022-10-31T10:11:31.527Z,7.53
2022-10-31T10:14:19.703Z,8.25
2022-10-31T10:16:52.412Z,7.60
2022-10-31T10:19:40.947Z,7.47
2022-10-31T10:22:21.109Z,8.05
2022-10-31T10:25:16.555Z,7.63
2022-10-31T10:27:58.139Z,8.10
2022-10-31T10:30:47.578Z,8.15
2022-10-31T10:33:25.481Z,7.80
2022-10-31T10:36:00.448Z,8.68
2022-10-31T10:38:38.223Z,7.75
2022-10-31T10:41:15.940Z,8.52
2022-10-31T10:43:42.930Z,7.57
2022-10-31T10:46:28.393Z,8.38
2022-10-31T10:49:12.863Z,8.20
2022-10-31T10:52:19.536Z,7.63
2022-10-31T10:55:03.887Z,7.10
2022-10-31T10:58:04.537Z,7.57
2022-10-31T11:00:42.480Z,7.60
2022-10-31T11:03:11.743Z,7.13
2022-10-31T11:05:55.332Z,7.47
2022-10-31T11:08:33.165Z,7.40
2022-10-31T11:11:26.498Z,8.13
2022-10-31T11:14:05.656Z,6.57
2022-10-31T11:16:43.087Z,7.40
2022-10-31T11:19:20.596Z,4.57
2022-10-31T11:21:53.609Z,7.90
2022-10-31T11:24:28.351Z,6.78
2022-10-31T11:27:21.974Z,6.70
2022-10-31T11:29:50.369Z,6.68
2022-10-31T11:32:23.056Z,6.85
2022-10-31T11:34:57.702Z,6.97
2022-10-31T11:37:32.824Z,6.68
2022-10-31T11:40:07.557Z,6.57
2022-10-31T11:42:42.438Z,7.05
2022-10-31T11:45:37.858Z,6.20
2022-10-31T11:48:21.664Z,6.65
2022-10-31T11:50:59.403Z,6.97
2022-10-31T11:53:33.047Z,6.68
2022-10-31T11:56:16.176Z,5.38
2022-10-31T11:58:44.052Z,5.70
2022-10-31T12:01:32.238Z,6.13
2022-10-31T12:04:13.556Z,6.30
2022-10-31T12:06:43.672Z,6.82
2022-10-31T12:09:33.882Z,6.45
2022-10-31T12:12:09.283Z,6.60
2022-10-31T12:14:53.956Z,5.28
2022-10-31T12:17:38.677Z,5.78
2022-10-31T12:20:17.556Z,5.03
2022-10-31T12:22:59.754Z,5.32
2022-10-31T12:25:52.283Z,4.85
2022-10-31T12:28:52.653Z,4.45
2022-10-31T12:32:22.217Z,3.63
2022-10-31T12:35:26.287Z,4.13
2022-10-31T12:38:34.054Z,3.90
2022-10-31T12:41:37.518Z,3.78
2022-10-31T12:44:23.681Z,3.40
2022-10-31T12:47:27.126Z,3.70
2022-10-31T12:50:02.531Z,3.65
2022-10-31T12:52:46.272Z,3.70
2022-10-31T12:55:44.799Z,3.95
2022-10-31T12:58:34.617Z,4.22
2022-10-31T13:01:13.887Z,3.45
2022-10-31T13:04:05.528Z,4.15
2022-10-31T13:07:00.960Z,3.47
2022-10-31T13:09:57.967Z,3.67
2022-10-31T13:12:30.913Z,3.55
2022-10-31T13:15:19.824Z,3.00
2022-10-31T13:18:00.259Z,3.63
2022-10-31T13:20:39.543Z,3.50
2022-10-31T13:26:37.688Z,3.70
2022-10-31T13:29:13.277Z,3.65
2022-10-31T13:31:44.565Z,3.50
2022-10-31T13:34:32.801Z,3.97
2022-10-31T13:37:37.841Z,3.88
2022-10-31T13:40:42.364Z,3.47
2022-10-31T13:43:31.318Z,3.80
2022-10-31T13:45:58.166Z,3.72
2022-10-31T13:48:37.067Z,3.85
2022-10-31T13:51:11.355Z,4.35
2022-10-31T13:53:46.691Z,3.65
2022-10-31T13:56:20.915Z,4.13
2022-10-31T13:59:14.086Z,3.90
2022-10-31T14:01:58.696Z,3.88
2022-10-31T14:04:39.090Z,3.35
2022-10-31T14:07:11.415Z,3.45
2022-10-31T14:10:04.102Z,3.42
2022-10-31T14:12:47.489Z,3.17
2022-10-31T14:15:26.505Z,3.45
2022-10-31T14:18:03.437Z,3.85
2022-10-31T14:20:40.124Z,3.85
2022-10-31T14:23:32.553Z,2.90
2022-10-31T14:26:40.920Z,3.38
2022-10-31T14:29:16.733Z,3.47
2022-10-31T14:32:24.062Z,3.08
2022-10-31T14:34:51.023Z,3.22
2022-10-31T14:37:48.720Z,3.65
2022-10-31T14:40:27.515Z,3.58
2022-10-31T14:43:42.883Z,3.47
2022-10-31T14:46:46.379Z,3.40
2022-10-31T14:50:24.556Z,3.50
2022-10-31T14:52:56.978Z,3.30
2022-10-31T14:55:25.656Z,3.50
2022-10-31T14:58:00.532Z,4.82
2022-10-31T15:00:29.956Z,3.72
2022-10-31T15:03:20.577Z,3.83
2022-10-31T15:05:59.340Z,3.83
2022-10-31T15:08:47.269Z,3.92
2022-10-31T15:11:18.448Z,3.80
2022-10-31T15:13:47.854Z,4.07
2022-10-31T15:16:36.578Z,4.30
2022-10-31T15:19:12.942Z,3.80
2022-10-31T15:21:48.277Z,3.58
2022-10-31T15:24:19.230Z,4.00
2022-10-31T15:26:52.584Z,3.88
2022-10-31T15:29:28.179Z,4.00
2022-10-31T15:32:01.435Z,4.15
2022-10-31T15:34:43.602Z,4.22
2022-10-31T15:37:16.503Z,4.47
2022-10-31T15:39:45.475Z,3.67
2022-10-31T15:42:40.158Z,4.30
2022-10-31T15:45:20.606Z,4.03
2022-10-31T15:48:17.827Z,3.83
2022-10-31T15:50:58.369Z,4.22
2022-10-31T15:53:57.574Z,4.63
2022-10-31T15:56:31.345Z,3.90
2022-10-31T15:59:01.434Z,4.50
2022-10-31T16:01:34.197Z,5.35
2022-10-31T16:04:05.721Z,5.43
2022-10-31T16:06:35.438Z,4.55
2022-10-31T16:09:04.012Z,4.35
2022-10-31T16:11:36.625Z,4.22
2022-10-31T16:14:15.596Z,4.10
2022-10-31T16:16:50.364Z,3.65
2022-10-31T16:19:30.590Z,3.35
2022-10-31T16:22:10.980Z,4.03
2022-10-31T16:25:15.254Z,4.28
2022-10-31T16:27:53.990Z,4.07
2022-10-31T16:30:41.711Z,4.32
2022-10-31T16:33:41.376Z,5.28
2022-10-31T16:36:36.319Z,5.45
2022-10-31T16:39:04.438Z,5.15
2022-10-31T16:41:33.423Z,4.82
2022-10-31T16:44:05.233Z,5.22
2022-10-31T16:46:32.100Z,5.47
2022-10-31T16:48:58.937Z,5.93
2022-10-31T16:51:28.358Z,5.97
2022-10-31T16:53:55.786Z,5.55
2022-10-31T16:56:34.270Z,5.50
2022-10-31T16:59:09.881Z,6.63
2022-10-31T17:01:43.904Z,6.10
2022-10-31T17:04:15.392Z,5.85
2022-10-31T17:06:43.177Z,6.22
2022-10-31T17:09:10.504Z,6.28
2022-10-31T17:11:49.221Z,6.40
2022-10-31T17:14:18.741Z,5.88
2022-10-31T17:16:47.670Z,6.28
2022-10-31T17:19:14.637Z,6.45
2022-10-31T17:21:41.966Z,5.72
2022-10-31T17:24:14.361Z,6.60
2022-10-31T17:26:41.794Z,6.38
2022-10-31T17:29:08.585Z,6.43
2022-10-31T17:31:39.039Z,6.15
2022-10-31T17:34:06.975Z,6.13
2022-10-31T17:36:35.474Z,5.93
2022-10-31T17:39:05.354Z,6.25
2022-10-31T17:41:34.841Z,5.55
2022-10-31T17:44:01.930Z,5.47
2022-10-31T17:46:30.635Z,5.60
2022-10-31T17:48:58.168Z,5.97
2022-10-31T17:51:26.365Z,5.55
2022-10-31T17:53:53.113Z,5.90
2022-10-31T17:56:19.858Z,6.95
2022-10-31T17:58:46.663Z,6.50
2022-10-31T18:01:16.523Z,6.50
2022-10-31T18:03:43.850Z,10.40
2022-10-31T18:06:12.102Z,9.35
2022-10-31T18:08:41.262Z,11.50
2022-10-31T18:11:17.116Z,8.02
2022-10-31T18:13:44.170Z,8.00
2022-10-31T18:16:15.043Z,8.52
2022-10-31T18:18:42.328Z,7.50
2022-10-31T18:21:09.224Z,7.40
2022-10-31T18:23:36.085Z,7.00
2022-10-31T18:26:02.915Z,7.18
2022-10-31T18:28:30.040Z,7.82
2022-10-31T18:31:03.499Z,6.70
2022-10-31T18:33:33.467Z,7.88
2022-10-31T18:36:07.545Z,9.20
2022-10-31T18:38:39.430Z,7.22
2022-10-31T18:41:07.517Z,7.72
2022-10-31T18:43:34.861Z,7.75
2022-10-31T18:46:04.292Z,8.20
2022-10-31T18:48:31.802Z,7.43
2022-10-31T18:51:07.316Z,8.68
2022-10-31T18:53:35.098Z,6.80
2022-10-31T18:56:02.632Z,7.80
2022-10-31T18:58:29.720Z,9.95
2022-10-31T19:00:56.599Z,11.45
2022-10-31T19:03:27.257Z,9.90
2022-10-31T19:05:56.747Z,9.63
2022-10-31T19:08:23.703Z,11.40
2022-10-31T19:10:50.613Z,10.77
2022-10-31T19:13:17.490Z,10.50
2022-10-31T19:15:44.236Z,10.85
2022-10-31T19:18:11.058Z,10.88
2022-10-31T19:20:39.170Z,11.00
2022-10-31T19:23:06.725Z,9.25
2022-10-31T19:25:33.546Z,10.25
2022-10-31T19:28:00.726Z,9.13
2022-10-31T19:30:27.738Z,12.43
2022-10-31T19:32:58.235Z,12.32
2022-10-31T19:35:25.046Z,11.05
2022-10-31T19:37:51.807Z,9.10
2022-10-31T19:40:18.682Z,9.93
2022-10-31T19:42:45.482Z,9.13
2022-10-31T19:45:14.441Z,9.70
2022-10-31T19:47:41.224Z,10.23
2022-10-31T19:50:09.143Z,9.95
2022-10-31T19:52:36.158Z,11.00
2022-10-31T19:55:03.672Z,11.98
2022-10-31T19:58:01.475Z,9.18
2022-10-31T20:00:21.386Z,9.95
2022-10-31T20:02:48.250Z,9.73
2022-10-31T20:05:15.156Z,9.40
2022-10-31T20:07:41.988Z,10.93
2022-10-31T20:10:09.098Z,12.45
2022-10-31T20:12:35.910Z,12.38
2022-10-31T20:15:05.466Z,15.00
2022-10-31T20:17:32.312Z,14.10
2022-10-31T20:19:59.210Z,10.77
2022-10-31T20:22:26.118Z,10.48
2022-10-31T20:24:55.619Z,10.55
2022-10-31T20:27:22.393Z,10.77
2022-10-31T20:29:49.207Z,11.30
2022-10-31T20:32:15.950Z,10.52
2022-10-31T20:34:42.774Z,10.57
2022-10-31T20:37:09.643Z,12.63
2022-10-31T20:39:36.714Z,15.65
2022-10-31T20:42:05.113Z,11.68
2022-10-31T20:44:32.160Z,12.82
2022-10-31T20:47:01.209Z,11.80
2022-10-31T20:49:30.132Z,11.90
2022-10-31T20:51:56.925Z,10.65
2022-10-31T20:54:23.817Z,10.00
2022-10-31T20:56:50.695Z,10.68
2022-10-31T20:59:19.366Z,10.30
2022-10-31T21:01:46.266Z,10.93
2022-10-31T21:04:15.766Z,11.07
2022-10-31T21:06:48.171Z,11.32
2022-10-31T21:09:17.692Z,11.73
2022-10-31T21:11:44.518Z,11.73
2022-10-31T21:14:11.332Z,12.43
2022-10-31T21:16:38.143Z,12.18
2022-10-31T21:19:05.558Z,11.90
2022-10-31T21:21:36.269Z,11.10
2022-10-31T21:24:12.037Z,11.30
2022-10-31T21:26:43.076Z,12.88
2022-10-31T21:29:11.474Z,12.98
2022-10-31T21:31:39.462Z,13.15
2022-10-31T21:34:07.110Z,12.55
2022-10-31T21:36:34.777Z,10.82
2022-10-31T21:39:02.122Z,12.68
2022-10-31T21:41:29.202Z,12.02
2022-10-31T21:43:59.787Z,13.60
2022-10-31T21:46:30.917Z,12.15
2022-10-31T21:48:58.950Z,12.77
2022-10-31T21:51:33.788Z,12.43
2022-10-31T21:54:20.702Z,12.25
2022-10-31T21:56:47.661Z,11.68
2022-10-31T21:59:14.476Z,12.30
2022-10-31T22:01:41.460Z,12.23
2022-10-31T22:04:08.755Z,10.93
2022-10-31T22:06:36.650Z,11.63
2022-10-31T22:09:06.956Z,10.38
2022-10-31T22:11:35.036Z,11.75
2022-10-31T22:14:03.379Z,9.65
2022-10-31T22:16:34.807Z,11.02
2022-10-31T22:19:05.712Z,10.57
2022-10-31T22:21:48.857Z,10.15
2022-10-31T22:24:17.849Z,10.85
2022-10-31T22:26:47.184Z,10.77
2022-10-31T22:29:17.763Z,10.35
2022-10-31T22:31:50.667Z,11.80
2022-10-31T22:34:20.368Z,11.93
2022-10-31T22:36:47.199Z,11.63
2022-10-31T22:39:17.338Z,12.15
2022-10-31T22:41:44.124Z,11.18
2022-10-31T22:44:11.494Z,11.07
2022-10-31T22:46:40.120Z,11.20
2022-10-31T22:49:13.875Z,11.38
2022-10-31T22:51:42.979Z,10.88
2022-10-31T22:54:17.733Z,10.82
2022-10-31T22:56:45.770Z,10.98
2022-10-31T22:59:16.581Z,11.13
2022-10-31T23:01:47.217Z,10.98
2022-10-31T23:04:16.534Z,12.60
2022-10-31T23:06:43.826Z,12.35
2022-10-31T23:09:15.509Z,10.95
2022-10-31T23:11:45.143Z,10.48
2022-10-31T23:14:20.779Z,10.35
2022-10-31T23:16:54.536Z,11.05
2022-10-31T23:19:27.857Z,10.32
2022-10-31T23:22:00.147Z,11.10
2022-10-31T23:24:39.209Z,10.50
2022-10-31T23:27:23.014Z,10.00
2022-10-31T23:29:56.293Z,9.13
2022-10-31T23:32:33.687Z,9.20
2022-10-31T23:35:05.321Z,9.27
2022-10-31T23:37:35.484Z,9.65
2022-10-31T23:40:03.175Z,9.63
2022-10-31T23:42:30.117Z,10.15
2022-10-31T23:44:58.015Z,9.15
2022-10-31T23:47:24.988Z,8.90
2022-10-31T23:49:52.407Z,9.32
2022-10-31T23:52:19.964Z,9.80
2022-10-31T23:54:47.054Z,8.63
2022-10-31T23:57:15.945Z,8.25
2022-10-31T23:59:43.081Z,8.75
